createdAt,value
2016-05-07T00:00:31.046Z,0
2016-05-07T00:01:30.876Z,0
2016-05-07T00:02:31.036Z,0
2016-05-07T00:03:31.023Z,0
2016-05-07T00:04:30.869Z,0
2016-05-07T00:05:31.012Z,0
2016-05-07T00:06:30.562Z,0
2016-05-07T00:07:30.862Z,0
2016-05-07T00:08:31.005Z,0
2016-05-07T00:09:30.851Z,0
2016-05-07T00:10:31.010Z,0
2016-05-07T00:11:30.998Z,0
2016-05-07T00:12:31.438Z,0
2016-05-07T00:13:30.830Z,0
2016-05-07T00:14:30.850Z,0
2016-05-07T00:15:31.492Z,0
2016-05-07T00:16:31.760Z,0
2016-05-07T00:17:30.997Z,0
2016-05-07T00:18:31.782Z,0
2016-05-07T00:19:31.269Z,0
2016-05-07T00:20:31.022Z,0
2016-05-07T00:21:30.977Z,0
2016-05-07T00:22:30.980Z,0
2016-05-07T00:23:30.826Z,0
2016-05-07T00:24:46.688Z,0
2016-05-07T00:25:31.019Z,0
2016-05-07T00:27:31.228Z,0
2016-05-07T00:28:31.059Z,0
2016-05-07T00:29:30.951Z,0
2016-05-07T00:30:31.096Z,0
2016-05-07T00:31:30.832Z,0
2016-05-07T00:32:30.945Z,0
2016-05-07T00:33:30.790Z,0
2016-05-07T00:34:30.934Z,0
2016-05-07T00:35:30.937Z,0
2016-05-07T00:36:30.939Z,0
2016-05-07T00:37:30.927Z,0
2016-05-07T00:38:30.929Z,0
2016-05-07T00:39:30.761Z,0
2016-05-07T00:40:30.919Z,0
2016-05-07T00:41:30.750Z,0
2016-05-07T00:42:31.346Z,0
2016-05-07T00:43:30.896Z,0
2016-05-07T00:44:30.899Z,0
2016-05-07T00:45:30.902Z,0
2016-05-07T00:46:30.904Z,0
2016-05-07T00:47:30.907Z,0
2016-05-07T00:48:30.722Z,0
2016-05-07T00:49:31.802Z,0
2016-05-07T00:50:31.211Z,0
2016-05-07T00:51:32.371Z,0
2016-05-07T00:52:30.873Z,0
2016-05-07T00:53:30.719Z,0
2016-05-07T00:54:31.676Z,0
2016-05-07T00:55:31.413Z,0
2016-05-07T00:56:30.557Z,0
2016-05-07T00:57:31.511Z,0
2016-05-07T00:58:30.858Z,0
2016-05-07T00:59:31.423Z,0
2016-05-07T01:00:31.082Z,0
2016-05-07T01:01:30.850Z,0
2016-05-07T01:02:32.009Z,0
2016-05-07T01:03:31.090Z,0
2016-05-07T01:04:31.031Z,0
2016-05-07T01:05:31.081Z,0
2016-05-07T01:06:30.817Z,0
2016-05-07T01:07:30.367Z,0
2016-05-07T01:08:30.509Z,0
2016-05-07T01:09:30.653Z,0
2016-05-07T01:10:30.828Z,0
2016-05-07T01:11:30.800Z,0
2016-05-07T01:12:30.677Z,0
2016-05-07T01:13:30.805Z,0
2016-05-07T01:14:30.808Z,0
2016-05-07T01:15:30.794Z,0
2016-05-07T01:16:30.641Z,0
2016-05-07T01:17:30.644Z,0
2016-05-07T01:18:30.786Z,0
2016-05-07T01:19:30.618Z,0
2016-05-07T01:20:30.776Z,0
2016-05-07T01:21:30.624Z,0
2016-05-07T01:22:30.766Z,0
2016-05-07T01:23:30.769Z,0
2016-05-07T01:24:30.771Z,0
2016-05-07T01:25:30.588Z,0
2016-05-07T01:26:30.745Z,0
2016-05-07T01:27:30.655Z,0
2016-05-07T01:28:30.596Z,0
2016-05-07T01:29:30.770Z,0
2016-05-07T01:30:30.584Z,0
2016-05-07T01:31:30.572Z,0
2016-05-07T01:32:30.715Z,0
2016-05-07T01:33:30.734Z,0
2016-05-07T01:34:31.034Z,0
2016-05-07T01:35:31.254Z,0
2016-05-07T01:36:30.507Z,0
2016-05-07T01:37:31.431Z,0
2016-05-07T01:38:30.856Z,0
2016-05-07T01:39:30.718Z,0
2016-05-07T01:40:30.690Z,0
2016-05-07T01:41:31.185Z,0
2016-05-07T01:42:31.583Z,0
2016-05-07T01:43:33.492Z,0
2016-05-07T01:44:44.866Z,0
2016-05-07T01:45:30.665Z,0
2016-05-07T01:46:30.512Z,0
2016-05-07T01:47:30.827Z,0
2016-05-07T01:48:30.798Z,0
2016-05-07T01:49:30.659Z,0
2016-05-07T01:50:30.492Z,0
2016-05-07T01:51:30.509Z,0
2016-05-07T01:52:30.652Z,0
2016-05-07T01:53:30.656Z,0
2016-05-07T01:54:30.627Z,0
2016-05-07T01:55:30.630Z,0
2016-05-07T01:56:30.617Z,0
2016-05-07T01:57:30.556Z,0
2016-05-07T01:58:30.481Z,0
2016-05-07T01:59:30.016Z,0
2016-05-07T02:00:30.611Z,0
2016-05-07T02:01:30.599Z,0
2016-05-07T02:02:30.602Z,0
2016-05-07T02:03:30.604Z,0
2016-05-07T02:04:30.591Z,0
2016-05-07T02:05:30.594Z,0
2016-05-07T02:06:30.285Z,0
2016-05-07T02:07:30.583Z,0
2016-05-07T02:08:31.290Z,0
2016-05-07T02:09:32.682Z,0
2016-05-07T02:10:30.576Z,0
2016-05-07T02:11:30.407Z,0
2016-05-07T02:12:32.363Z,0
2016-05-07T02:13:30.724Z,0
2016-05-07T02:14:30.915Z,0
2016-05-07T02:15:30.401Z,0
2016-05-07T02:16:30.358Z,0
2016-05-07T02:18:33.004Z,0
2016-05-07T02:19:31.959Z,0
2016-05-07T02:20:30.697Z,0
2016-05-07T02:21:31.214Z,0
2016-05-07T02:22:30.937Z,0
2016-05-07T02:23:31.580Z,0
2016-05-07T02:24:30.351Z,0
2016-05-07T02:25:30.510Z,0
2016-05-07T02:26:30.512Z,0
2016-05-07T02:27:30.531Z,0
2016-05-07T02:28:30.503Z,0
2016-05-07T02:29:30.193Z,0
2016-05-07T02:30:30.320Z,0
2016-05-07T02:31:30.478Z,0
2016-05-07T02:32:30.481Z,0
2016-05-07T02:33:30.314Z,0
2016-05-07T02:34:30.456Z,0
2016-05-07T02:35:30.147Z,0
2016-05-07T02:36:30.446Z,0
2016-05-07T02:37:30.432Z,0
2016-05-07T02:38:30.452Z,0
2016-05-07T02:39:30.439Z,0
2016-05-07T02:40:30.269Z,0
2016-05-07T02:41:30.428Z,0
2016-05-07T02:42:30.305Z,0
2016-05-07T02:43:30.418Z,0
2016-05-07T02:44:30.264Z,0
2016-05-07T02:45:30.408Z,0
2016-05-07T02:46:30.238Z,0
2016-05-07T02:47:30.397Z,0
2016-05-07T02:48:30.259Z,0
2016-05-07T02:49:29.934Z,0
2016-05-07T02:50:30.390Z,0
2016-05-07T02:51:30.237Z,0
2016-05-07T02:52:30.926Z,0
2016-05-07T02:53:30.663Z,0
2016-05-07T02:54:30.370Z,0
2016-05-07T02:55:45.043Z,0
2016-05-07T02:56:30.359Z,0
2016-05-07T02:57:32.174Z,0
2016-05-07T02:58:30.817Z,0
2016-05-07T02:59:30.211Z,0
2016-05-07T03:00:30.339Z,0
2016-05-07T03:01:30.341Z,0
2016-05-07T03:02:30.703Z,0
2016-05-07T03:03:31.612Z,0
2016-05-07T03:04:31.725Z,0
2016-05-07T03:05:31.477Z,0
2016-05-07T03:06:30.308Z,0
2016-05-07T03:07:30.154Z,0
2016-05-07T03:08:30.297Z,0
2016-05-07T03:09:30.300Z,0
2016-05-07T03:10:29.975Z,5
2016-05-07T03:11:30.290Z,5
2016-05-07T03:12:30.449Z,5
2016-05-07T03:13:30.123Z,5
2016-05-07T03:14:30.127Z,5
2016-05-07T03:15:30.113Z,5
2016-05-07T03:16:30.272Z,5
2016-05-07T03:17:29.962Z,5
2016-05-07T03:18:30.246Z,10
2016-05-07T03:19:29.936Z,10
2016-05-07T03:20:30.252Z,10
2016-05-07T03:21:30.238Z,10
2016-05-07T03:22:30.226Z,10
2016-05-07T03:23:30.243Z,15
2016-05-07T03:24:30.076Z,15
2016-05-07T03:25:30.218Z,15
2016-05-07T03:26:30.065Z,15
2016-05-07T03:27:30.551Z,20
2016-05-07T03:28:31.148Z,20
2016-05-07T03:29:30.931Z,20
2016-05-07T03:30:30.388Z,25
2016-05-07T03:31:30.797Z,25
2016-05-07T03:32:30.534Z,25
2016-05-07T03:33:30.177Z,30
2016-05-07T03:34:30.024Z,30
2016-05-07T03:35:30.167Z,30
2016-05-07T03:36:32.967Z,35
2016-05-07T03:37:31.547Z,35
2016-05-07T03:38:29.847Z,40
2016-05-07T03:39:30.443Z,40
2016-05-07T03:40:30.509Z,40
2016-05-07T03:41:30.152Z,45
2016-05-07T03:42:30.154Z,45
2016-05-07T03:43:30.126Z,50
2016-05-07T03:44:29.988Z,50
2016-05-07T03:45:29.960Z,50
2016-05-07T03:46:30.119Z,55
2016-05-07T03:47:29.793Z,55
2016-05-07T03:48:29.796Z,60
2016-05-07T03:49:30.096Z,60
2016-05-07T03:50:29.926Z,65
2016-05-07T03:51:29.929Z,65
2016-05-07T03:52:30.087Z,70
2016-05-07T03:53:29.918Z,70
2016-05-07T03:54:30.077Z,75
2016-05-07T03:55:29.923Z,75
2016-05-07T03:56:30.068Z,80
2016-05-07T03:57:30.289Z,80
2016-05-07T03:58:30.057Z,85
2016-05-07T03:59:29.903Z,85
2016-05-07T04:00:30.047Z,100
2016-05-07T04:01:29.878Z,115
2016-05-07T04:02:30.036Z,120
2016-05-07T04:03:29.867Z,130
2016-05-07T04:04:30.026Z,130
2016-05-07T04:05:30.045Z,130
2016-05-07T04:06:30.031Z,140
2016-05-07T04:07:30.019Z,145
2016-05-07T04:08:30.006Z,155
2016-05-07T04:09:29.852Z,160
2016-05-07T04:10:29.855Z,170
2016-05-07T04:11:45.077Z,170
2016-05-07T04:12:44.500Z,180
2016-05-07T04:13:30.613Z,185
2016-05-07T04:14:44.319Z,190
2016-05-07T04:15:44.165Z,190
2016-05-07T04:16:44.105Z,205
2016-05-07T04:17:30.186Z,215
2016-05-07T04:18:30.330Z,225
2016-05-07T04:19:29.879Z,225
2016-05-07T04:20:29.991Z,230
2016-05-07T04:21:44.946Z,245
2016-05-07T04:22:29.981Z,245
2016-05-07T04:23:44.859Z,245
2016-05-07T04:24:30.424Z,255
2016-05-07T04:25:30.160Z,260
2016-05-07T04:26:30.523Z,265
2016-05-07T04:27:31.120Z,270
2016-05-07T04:28:29.825Z,285
2016-05-07T04:29:29.984Z,300
2016-05-07T04:30:29.971Z,300
2016-05-07T04:31:29.817Z,300
2016-05-07T04:32:30.008Z,310
2016-05-07T04:33:29.823Z,325
2016-05-07T04:34:29.981Z,330
2016-05-07T04:35:29.829Z,335
2016-05-07T04:36:29.675Z,335
2016-05-07T04:37:29.974Z,345
2016-05-07T04:38:29.837Z,355
2016-05-07T04:39:30.027Z,370
2016-05-07T04:40:29.669Z,380
2016-05-07T04:41:29.985Z,380
2016-05-07T04:42:30.082Z,395
2016-05-07T04:43:29.832Z,415
2016-05-07T04:44:30.008Z,425
2016-05-07T04:45:29.868Z,415
2016-05-07T04:46:32.530Z,415
2016-05-07T04:47:31.924Z,435
2016-05-07T04:48:30.957Z,440
2016-05-07T04:49:30.863Z,430
2016-05-07T04:50:30.022Z,440
2016-05-07T04:51:30.041Z,475
2016-05-07T04:52:30.027Z,510
2016-05-07T04:53:30.108Z,520
2016-05-07T04:54:29.907Z,490
2016-05-07T04:55:31.991Z,475
2016-05-07T04:56:29.913Z,505
2016-05-07T04:57:31.041Z,580
2016-05-07T04:58:30.278Z,615
2016-05-07T04:59:30.609Z,570
2016-05-07T05:00:30.596Z,545
2016-05-07T05:01:30.099Z,545
2016-05-07T05:02:30.101Z,575
2016-05-07T05:03:30.104Z,590
2016-05-07T05:04:30.122Z,600
2016-05-07T05:05:29.813Z,620
2016-05-07T05:06:30.143Z,635
2016-05-07T05:07:30.161Z,640
2016-05-07T05:08:30.023Z,625
2016-05-07T05:09:29.855Z,630
2016-05-07T05:10:30.186Z,650
2016-05-07T05:11:30.189Z,665
2016-05-07T05:12:30.316Z,675
2016-05-07T05:13:30.194Z,685
2016-05-07T05:14:30.071Z,675
2016-05-07T05:15:30.089Z,660
2016-05-07T05:16:30.092Z,670
2016-05-07T05:17:30.252Z,705
2016-05-07T05:18:30.254Z,725
2016-05-07T05:19:30.272Z,730
2016-05-07T05:20:30.306Z,745
2016-05-07T05:21:30.277Z,770
2016-05-07T05:22:30.297Z,775
2016-05-07T05:23:30.330Z,760
2016-05-07T05:24:30.176Z,760
2016-05-07T05:25:30.179Z,785
2016-05-07T05:26:30.338Z,795
2016-05-07T05:27:31.324Z,800
2016-05-07T05:28:30.359Z,825
2016-05-07T05:29:30.377Z,875
2016-05-07T05:30:44.679Z,885
2016-05-07T05:31:30.507Z,850
2016-05-07T05:32:31.120Z,810
2016-05-07T05:33:30.810Z,825
2016-05-07T05:34:30.828Z,875
2016-05-07T05:35:30.753Z,925
2016-05-07T05:36:30.303Z,935
2016-05-07T05:37:30.461Z,925
2016-05-07T05:38:30.323Z,905
2016-05-07T05:39:31.186Z,910
2016-05-07T05:40:31.500Z,955
2016-05-07T05:41:30.567Z,1025
2016-05-07T05:42:45.039Z,1090
2016-05-07T05:43:30.555Z,1100
2016-05-07T05:44:30.403Z,1085
2016-05-07T05:45:31.077Z,1075
2016-05-07T05:46:30.595Z,1085
2016-05-07T05:47:30.597Z,1130
2016-05-07T05:48:30.616Z,1155
2016-05-07T05:49:30.619Z,1155
2016-05-07T05:50:30.652Z,1170
2016-05-07T05:51:30.655Z,1160
2016-05-07T05:52:30.689Z,1175
2016-05-07T05:53:30.552Z,1195
2016-05-07T05:54:30.554Z,1225
2016-05-07T05:55:30.697Z,1240
2016-05-07T05:56:30.732Z,1240
2016-05-07T05:57:31.671Z,1235
2016-05-07T05:58:30.752Z,1225
2016-05-07T05:59:30.755Z,1225
2016-05-07T06:00:30.774Z,1235
2016-05-07T06:01:30.776Z,1280
2016-05-07T06:02:30.794Z,1340
2016-05-07T06:03:30.828Z,1410
2016-05-07T06:04:33.831Z,1445
2016-05-07T06:05:31.099Z,1415
2016-05-07T06:06:32.587Z,1370
2016-05-07T06:07:31.120Z,1355
2016-05-07T06:08:31.217Z,1355
2016-05-07T06:09:30.954Z,1375
2016-05-07T06:10:31.176Z,1395
2016-05-07T06:11:30.928Z,1425
2016-05-07T06:12:30.836Z,1475
2016-05-07T06:13:30.964Z,1450
2016-05-07T06:14:31.248Z,1415
2016-05-07T06:15:31.314Z,1420
2016-05-07T06:16:31.020Z,1455
2016-05-07T06:17:31.928Z,1475
2016-05-07T06:18:31.041Z,1490
2016-05-07T06:19:31.559Z,1520
2016-05-07T06:20:31.718Z,1525
2016-05-07T06:21:31.439Z,1540
2016-05-07T06:22:30.864Z,1610
2016-05-07T06:23:31.960Z,1700
2016-05-07T06:24:31.650Z,1695
2016-05-07T06:25:31.153Z,1625
2016-05-07T06:26:30.999Z,1585
2016-05-07T06:27:31.158Z,1580
2016-05-07T06:28:31.036Z,1595
2016-05-07T06:29:31.054Z,1610
2016-05-07T06:30:31.057Z,1600
2016-05-07T06:31:31.075Z,1620
2016-05-07T06:32:31.093Z,1615
2016-05-07T06:33:31.285Z,1645
2016-05-07T06:34:31.115Z,1655
2016-05-07T06:35:31.320Z,1640
2016-05-07T06:36:31.324Z,1700
2016-05-07T06:37:31.201Z,1865
2016-05-07T06:38:31.360Z,2020
2016-05-07T06:39:31.362Z,2065
2016-05-07T06:40:31.365Z,1955
2016-05-07T06:41:31.243Z,1785
2016-05-07T06:42:31.276Z,1720
2016-05-07T06:43:31.451Z,1735
2016-05-07T06:44:31.453Z,1790
2016-05-07T06:45:31.300Z,1825
2016-05-07T06:46:31.491Z,1830
2016-05-07T06:47:31.353Z,1835
2016-05-07T06:48:31.512Z,1855
2016-05-07T06:49:59.892Z,1885
2016-05-07T06:50:31.955Z,1900
2016-05-07T06:51:31.708Z,1935
2016-05-07T06:52:31.428Z,1965
2016-05-07T06:53:31.900Z,1935
2016-05-07T06:54:31.606Z,1930
2016-05-07T06:55:31.624Z,1930
2016-05-07T06:56:31.658Z,1935
2016-05-07T06:57:32.785Z,1925
2016-05-07T06:58:34.477Z,1930
2016-05-07T06:59:33.041Z,1945
2016-05-07T07:00:31.762Z,2010
2016-05-07T07:01:31.921Z,2115
2016-05-07T07:02:32.268Z,2175
2016-05-07T07:03:31.771Z,2160
2016-05-07T07:04:31.790Z,2090
2016-05-07T07:05:31.651Z,2030
2016-05-07T07:06:31.920Z,2005
2016-05-07T07:07:31.843Z,2020
2016-05-07T07:08:31.879Z,2050
2016-05-07T07:09:31.881Z,2085
2016-05-07T07:10:31.742Z,2040
2016-05-07T07:11:31.762Z,1980
2016-05-07T07:12:31.811Z,1950
2016-05-07T07:13:31.939Z,1950
2016-05-07T07:14:31.972Z,1960
2016-05-07T07:15:31.990Z,2035
2016-05-07T07:16:31.836Z,2110
2016-05-07T07:17:32.028Z,2155
2016-05-07T07:18:31.874Z,2160
2016-05-07T07:19:32.064Z,2130
2016-05-07T07:20:32.066Z,2085
2016-05-07T07:21:31.944Z,2015
2016-05-07T07:22:31.963Z,1990
2016-05-07T07:23:34.544Z,2050
2016-05-07T07:24:32.781Z,2100
2016-05-07T07:25:33.549Z,2120
2016-05-07T07:26:33.286Z,2125
2016-05-07T07:27:32.647Z,2145
2016-05-07T07:28:32.072Z,2145
2016-05-07T07:29:33.277Z,2120
2016-05-07T07:30:32.125Z,1990
2016-05-07T07:31:32.300Z,1865
2016-05-07T07:32:33.255Z,1785
2016-05-07T07:33:33.132Z,1770
2016-05-07T07:34:32.588Z,1780
2016-05-07T07:35:32.388Z,1825
2016-05-07T07:36:32.469Z,1850
2016-05-07T07:37:32.597Z,1890
2016-05-07T07:38:32.318Z,1935
2016-05-07T07:39:32.290Z,1980
2016-05-07T07:40:32.464Z,1995
2016-05-07T07:41:32.482Z,2025
2016-05-07T07:42:32.438Z,2095
2016-05-07T07:43:32.379Z,2160
2016-05-07T07:44:32.397Z,2160
2016-05-07T07:45:32.415Z,2135
2016-05-07T07:46:32.589Z,2120
2016-05-07T07:47:32.623Z,2070
2016-05-07T07:48:32.642Z,2020
2016-05-07T07:49:32.661Z,1985
2016-05-07T07:50:32.663Z,1980
2016-05-07T07:51:32.541Z,2105
2016-05-07T07:52:32.714Z,2385
2016-05-07T07:53:32.578Z,2610
2016-05-07T07:54:32.752Z,2710
2016-05-07T07:55:32.770Z,2755
2016-05-07T07:56:32.805Z,2765
2016-05-07T07:57:32.838Z,2830
2016-05-07T07:58:32.700Z,2860
2016-05-07T07:59:32.858Z,2905
2016-05-07T08:00:32.721Z,2905
2016-05-07T08:01:32.896Z,2915
2016-05-07T08:02:32.930Z,2910
2016-05-07T08:03:32.791Z,2875
2016-05-07T08:04:32.966Z,2855
2016-05-07T08:05:32.999Z,2885
2016-05-07T08:06:33.003Z,2865
2016-05-07T08:07:33.021Z,2805
2016-05-07T08:08:33.399Z,2780
2016-05-07T08:09:33.229Z,2590
2016-05-07T08:10:32.951Z,2120
2016-05-07T08:11:33.782Z,1890
2016-05-07T08:12:33.347Z,1875
2016-05-07T08:13:33.475Z,1865
2016-05-07T08:14:33.040Z,1875
2016-05-07T08:15:33.105Z,1895
2016-05-07T08:16:33.234Z,1900
2016-05-07T08:17:33.954Z,1890
2016-05-07T08:18:34.909Z,1905
2016-05-07T08:19:33.287Z,1960
2016-05-07T08:20:47.497Z,1995
2016-05-07T08:21:33.575Z,1970
2016-05-07T08:22:33.218Z,1920
2016-05-07T08:23:33.345Z,1880
2016-05-07T08:24:33.238Z,1880
2016-05-07T08:25:33.257Z,1895
2016-05-07T08:26:33.432Z,1910
2016-05-07T08:27:33.341Z,1895
2016-05-07T08:28:33.499Z,1900
2016-05-07T08:29:33.507Z,1920
2016-05-07T08:30:33.552Z,1935
2016-05-07T08:31:33.630Z,1935
2016-05-07T08:32:33.425Z,1940
2016-05-07T08:33:33.424Z,1960
2016-05-07T08:34:33.654Z,1965
2016-05-07T08:35:33.844Z,1960
2016-05-07T08:36:33.878Z,1940
2016-05-07T08:37:33.896Z,1785
2016-05-07T08:38:33.788Z,1010
2016-05-07T08:39:33.977Z,350
2016-05-07T08:40:33.861Z,325
2016-05-07T08:41:33.697Z,325
2016-05-07T08:42:34.347Z,325
2016-05-07T08:43:34.917Z,325
2016-05-07T08:44:34.785Z,325
2016-05-07T08:45:34.212Z,325
2016-05-07T08:46:34.889Z,325
2016-05-07T08:47:34.564Z,325
2016-05-07T08:48:34.162Z,320
2016-05-07T08:49:34.012Z,320
2016-05-07T08:50:34.171Z,320
2016-05-07T08:51:36.424Z,320
2016-05-07T08:52:35.756Z,320
2016-05-07T08:53:34.212Z,320
2016-05-07T08:54:34.840Z,320
2016-05-07T08:55:35.047Z,320
2016-05-07T08:56:34.394Z,315
2016-05-07T08:57:34.335Z,315
2016-05-07T08:58:34.275Z,315
2016-05-07T08:59:33.981Z,315
2016-05-07T09:00:34.280Z,310
2016-05-07T09:01:34.299Z,310
2016-05-07T09:02:34.146Z,310
2016-05-07T09:03:34.304Z,310
2016-05-07T09:04:34.324Z,310
2016-05-07T09:05:34.013Z,310
2016-05-07T09:06:34.188Z,310
2016-05-07T09:07:34.346Z,310
2016-05-07T09:08:34.365Z,310
2016-05-07T09:09:34.352Z,310
2016-05-07T09:10:34.074Z,305
2016-05-07T09:11:34.217Z,305
2016-05-07T09:12:34.548Z,305
2016-05-07T09:13:34.237Z,305
2016-05-07T09:14:34.241Z,305
2016-05-07T09:15:34.243Z,305
2016-05-07T09:16:34.106Z,305
2016-05-07T09:17:34.467Z,300
2016-05-07T09:18:34.423Z,300
2016-05-07T09:19:34.270Z,300
2016-05-07T09:20:34.288Z,300
2016-05-07T09:21:34.447Z,300
2016-05-07T09:22:34.449Z,295
2016-05-07T09:23:34.312Z,295
2016-05-07T09:24:34.158Z,295
2016-05-07T09:25:34.317Z,295
2016-05-07T09:26:37.164Z,300
2016-05-07T09:27:35.353Z,295
2016-05-07T09:28:35.028Z,300
2016-05-07T09:29:34.891Z,300
2016-05-07T09:31:34.708Z,300
2016-05-07T09:32:34.804Z,300
2016-05-07T09:33:34.604Z,300
2016-05-07T09:34:34.669Z,295
2016-05-07T09:35:34.516Z,295
2016-05-07T09:37:03.787Z,290
2016-05-07T09:37:34.396Z,290
2016-05-07T09:38:34.540Z,290
2016-05-07T09:39:35.245Z,295
2016-05-07T09:40:34.232Z,300
2016-05-07T09:41:34.829Z,305
2016-05-07T09:42:35.457Z,310
2016-05-07T09:43:34.568Z,300
2016-05-07T09:44:34.415Z,300
2016-05-07T09:45:34.418Z,295
2016-05-07T09:46:34.577Z,290
2016-05-07T09:47:34.454Z,290
2016-05-07T09:48:34.442Z,280
2016-05-07T09:49:34.444Z,290
2016-05-07T09:50:34.603Z,285
2016-05-07T09:51:34.606Z,285
2016-05-07T09:52:34.609Z,285
2016-05-07T09:53:34.470Z,285
2016-05-07T09:54:34.614Z,280
2016-05-07T09:55:34.631Z,280
2016-05-07T09:56:34.635Z,280
2016-05-07T09:57:35.200Z,280
2016-05-07T09:58:34.640Z,280
2016-05-07T09:59:34.658Z,280
2016-05-07T10:00:34.505Z,280
2016-05-07T10:01:36.445Z,280
2016-05-07T10:02:36.308Z,280
2016-05-07T10:03:35.653Z,280
2016-05-07T10:04:34.672Z,280
2016-05-07T10:05:34.847Z,290
2016-05-07T10:06:34.771Z,300
2016-05-07T10:07:34.539Z,300
2016-05-07T10:08:34.917Z,300
2016-05-07T10:09:34.701Z,285
2016-05-07T10:10:36.344Z,275
2016-05-07T10:11:34.847Z,270
2016-05-07T10:12:35.802Z,270
2016-05-07T10:13:35.462Z,270
2016-05-07T10:14:35.183Z,265
2016-05-07T10:15:34.998Z,265
2016-05-07T10:16:35.110Z,265
2016-05-07T10:17:34.582Z,265
2016-05-07T10:18:34.757Z,270
2016-05-07T10:19:34.759Z,265
2016-05-07T10:20:34.762Z,265
2016-05-07T10:21:34.609Z,265
2016-05-07T10:22:34.611Z,260
2016-05-07T10:23:34.613Z,245
2016-05-07T10:24:34.616Z,260
2016-05-07T10:25:34.479Z,260
2016-05-07T10:26:34.794Z,260
2016-05-07T10:27:35.077Z,260
2016-05-07T10:28:34.810Z,255
2016-05-07T10:29:34.812Z,260
2016-05-07T10:30:34.814Z,255
2016-05-07T10:31:34.818Z,255
2016-05-07T10:32:34.820Z,255
2016-05-07T10:33:34.683Z,255
2016-05-07T10:34:34.825Z,260
2016-05-07T10:35:34.829Z,265
2016-05-07T10:36:34.847Z,265
2016-05-07T10:37:34.708Z,265
2016-05-07T10:38:34.712Z,265
2016-05-07T10:39:34.714Z,265
2016-05-07T10:40:34.857Z,260
2016-05-07T10:41:34.860Z,260
2016-05-07T10:42:35.394Z,260
2016-05-07T10:43:34.882Z,260
2016-05-07T10:44:34.821Z,265
2016-05-07T10:46:35.499Z,270
2016-05-07T10:48:17.723Z,265
2016-05-07T10:48:34.754Z,265
2016-05-07T10:49:49.241Z,260
2016-05-07T10:50:35.057Z,260
2016-05-07T10:51:34.809Z,270
2016-05-07T10:52:35.234Z,265
2016-05-07T10:53:34.940Z,265
2016-05-07T10:55:49.132Z,265
2016-05-07T10:56:49.931Z,265
2016-05-07T10:57:35.045Z,270
2016-05-07T10:58:49.140Z,275
2016-05-07T10:59:49.142Z,280
2016-05-07T11:00:35.412Z,280
2016-05-07T11:01:34.820Z,270
2016-05-07T11:02:34.978Z,275
2016-05-07T11:03:34.981Z,270
2016-05-07T11:04:35.001Z,270
2016-05-07T11:05:34.831Z,270
2016-05-07T11:06:34.833Z,265
2016-05-07T11:07:34.853Z,265
2016-05-07T11:08:35.011Z,265
2016-05-07T11:09:35.013Z,265
2016-05-07T11:10:34.860Z,275
2016-05-07T11:11:34.878Z,285
2016-05-07T11:12:35.241Z,300
2016-05-07T11:13:35.040Z,320
2016-05-07T11:14:35.043Z,330
2016-05-07T11:15:35.046Z,330
2016-05-07T11:16:34.766Z,325
2016-05-07T11:17:35.066Z,325
2016-05-07T11:18:35.069Z,325
2016-05-07T11:19:36.479Z,320
2016-05-07T11:20:35.887Z,300
2016-05-07T11:21:34.952Z,280
2016-05-07T11:22:36.376Z,265
2016-05-07T11:23:36.067Z,265
2016-05-07T11:24:35.476Z,260
2016-05-07T11:25:34.948Z,260
2016-05-07T11:26:35.106Z,260
2016-05-07T11:27:34.968Z,255
2016-05-07T11:28:35.112Z,250
2016-05-07T11:29:36.255Z,245
2016-05-07T11:30:36.789Z,245
2016-05-07T11:31:36.557Z,245
2016-05-07T11:32:36.138Z,245
2016-05-07T11:33:35.001Z,250
2016-05-07T11:34:35.159Z,250
2016-05-07T11:35:35.162Z,255
2016-05-07T11:36:35.024Z,260
2016-05-07T11:37:35.166Z,270
2016-05-07T11:38:35.030Z,280
2016-05-07T11:39:35.188Z,300
2016-05-07T11:40:35.191Z,305
2016-05-07T11:41:35.193Z,300
2016-05-07T11:42:34.759Z,290
2016-05-07T11:43:34.918Z,285
2016-05-07T11:44:35.232Z,270
2016-05-07T11:45:35.220Z,260
2016-05-07T11:46:35.238Z,260
2016-05-07T11:47:35.225Z,260
2016-05-07T11:48:35.087Z,270
2016-05-07T11:49:35.090Z,280
2016-05-07T11:50:35.265Z,295
2016-05-07T11:51:35.252Z,310
2016-05-07T11:52:35.254Z,330
2016-05-07T11:53:35.116Z,355
2016-05-07T11:54:35.276Z,365
2016-05-07T11:55:35.121Z,360
2016-05-07T11:56:35.281Z,355
2016-05-07T11:57:34.986Z,355
2016-05-07T11:58:35.302Z,355
2016-05-07T11:59:35.304Z,370
2016-05-07T12:00:35.151Z,350
2016-05-07T12:01:35.153Z,300
2016-05-07T12:02:35.172Z,275
2016-05-07T12:03:35.175Z,265
2016-05-07T12:04:37.364Z,260
2016-05-07T12:05:35.352Z,250
2016-05-07T12:06:35.401Z,245
2016-05-07T12:07:35.342Z,245
2016-05-07T12:08:36.219Z,245
2016-05-07T12:09:35.363Z,240
2016-05-07T12:10:35.412Z,240
2016-05-07T12:11:35.227Z,240
2016-05-07T12:12:35.339Z,235
2016-05-07T12:13:37.483Z,240
2016-05-07T12:14:36.485Z,240
2016-05-07T12:15:35.394Z,245
2016-05-07T12:16:49.428Z,250
2016-05-07T12:17:35.649Z,255
2016-05-07T12:18:35.512Z,270
2016-05-07T12:19:35.686Z,280
2016-05-07T12:20:35.268Z,295
2016-05-07T12:21:35.426Z,315
2016-05-07T12:22:35.288Z,340
2016-05-07T12:23:35.463Z,355
2016-05-07T12:24:35.309Z,355
2016-05-07T12:25:35.296Z,335
2016-05-07T12:26:35.314Z,305
2016-05-07T12:27:35.787Z,285
2016-05-07T12:28:35.164Z,275
2016-05-07T12:29:35.338Z,260
2016-05-07T12:30:35.481Z,250
2016-05-07T12:31:35.187Z,245
2016-05-07T12:32:35.190Z,245
2016-05-07T12:33:35.505Z,235
2016-05-07T12:34:35.212Z,235
2016-05-07T12:35:35.369Z,230
2016-05-07T12:36:35.373Z,230
2016-05-07T12:37:35.375Z,225
2016-05-07T12:38:37.112Z,215
2016-05-07T12:39:35.802Z,215
2016-05-07T12:40:37.087Z,235
2016-05-07T12:41:35.542Z,250
2016-05-07T12:42:37.139Z,260
2016-05-07T12:43:35.844Z,280
2016-05-07T12:44:36.378Z,290
2016-05-07T12:45:35.819Z,300
2016-05-07T12:46:35.619Z,310
2016-05-07T12:47:35.605Z,320
2016-05-07T12:48:36.436Z,325
2016-05-07T12:49:36.361Z,305
2016-05-07T12:50:35.754Z,295
2016-05-07T12:51:36.413Z,280
2016-05-07T12:52:35.462Z,265
2016-05-07T12:53:35.621Z,250
2016-05-07T12:54:35.483Z,240
2016-05-07T12:55:35.643Z,230
2016-05-07T12:56:35.364Z,230
2016-05-07T12:57:35.351Z,225
2016-05-07T12:58:35.666Z,225
2016-05-07T12:59:35.669Z,220
2016-05-07T13:00:35.671Z,220
2016-05-07T13:01:35.518Z,220
2016-05-07T13:02:35.677Z,220
2016-05-07T13:03:35.679Z,215
2016-05-07T13:04:35.386Z,215
2016-05-07T13:05:35.700Z,220
2016-05-07T13:06:35.562Z,210
2016-05-07T13:07:35.550Z,210
2016-05-07T13:08:35.552Z,215
2016-05-07T13:09:35.586Z,215
2016-05-07T13:10:35.589Z,215
2016-05-07T13:11:35.748Z,215
2016-05-07T13:12:35.469Z,215
2016-05-07T13:13:35.753Z,220
2016-05-07T13:14:35.458Z,220
2016-05-07T13:15:35.759Z,220
2016-05-07T13:16:35.621Z,220
2016-05-07T13:17:35.623Z,220
2016-05-07T13:18:35.610Z,220
2016-05-07T13:19:35.785Z,215
2016-05-07T13:20:35.632Z,215
2016-05-07T13:21:35.790Z,215
2016-05-07T13:22:35.652Z,215
2016-05-07T13:23:37.468Z,215
2016-05-07T13:24:37.360Z,215
2016-05-07T13:25:36.504Z,215
2016-05-07T13:26:35.851Z,220
2016-05-07T13:27:37.854Z,220
2016-05-07T13:28:35.840Z,225
2016-05-07T13:29:35.687Z,225
2016-05-07T13:30:35.689Z,220
2016-05-07T13:31:35.848Z,220
2016-05-07T13:33:35.885Z,225
2016-05-07T13:34:36.716Z,225
2016-05-07T13:36:36.347Z,230
2016-05-07T13:38:36.148Z,230
2016-05-07T13:39:35.901Z,235
2016-05-07T13:40:35.904Z,245
2016-05-07T13:41:35.922Z,270
2016-05-07T13:42:36.394Z,295
2016-05-07T13:43:35.772Z,305
2016-05-07T13:44:35.931Z,300
2016-05-07T13:45:35.777Z,290
2016-05-07T13:46:35.780Z,270
2016-05-07T13:47:35.938Z,250
2016-05-07T13:48:35.800Z,240
2016-05-07T13:49:35.960Z,235
2016-05-07T13:50:35.963Z,230
2016-05-07T13:51:35.808Z,225
2016-05-07T13:52:35.968Z,220
2016-05-07T13:53:35.986Z,220
2016-05-07T13:54:35.833Z,225
2016-05-07T13:55:35.991Z,235
2016-05-07T13:56:35.837Z,230
2016-05-07T13:57:37.387Z,235
2016-05-07T13:58:38.406Z,240
2016-05-07T13:59:36.017Z,245
2016-05-07T14:00:36.020Z,240
2016-05-07T14:01:36.835Z,235
2016-05-07T14:02:36.417Z,230